sensor_id;sensor_type;location;lat;lon;timestamp;P1;durP1;ratioP1;P2;durP2;ratioP2
52268;SDS011;38224;50.950;4.100;2023-09-08T00:01:01;12.57;;;9.17;;
52268;SDS011;38224;50.950;4.100;2023-09-08T00:03:26;11.27;;;7.93;;
52268;SDS011;38224;50.950;4.100;2023-09-08T00:05:52;11.53;;;8.80;;
52268;SDS011;38224;50.950;4.100;2023-09-08T00:08:20;12.85;;;8.52;;
52268;SDS011;38224;50.950;4.100;2023-09-08T00:10:45;10.13;;;8.45;;
52268;SDS011;38224;50.950;4.100;2023-09-08T00:13:11;13.40;;;8.53;;
52268;SDS011;38224;50.950;4.100;2023-09-08T00:15:36;12.60;;;8.80;;
52268;SDS011;38224;50.950;4.100;2023-09-08T00:18:01;15.93;;;9.23;;
52268;SDS011;38224;50.950;4.100;2023-09-08T00:20:26;17.17;;;9.53;;
52268;SDS011;38224;50.950;4.100;2023-09-08T00:22:52;15.03;;;8.37;;
52268;SDS011;38224;50.950;4.100;2023-09-08T00:25:17;12.73;;;8.27;;
52268;SDS011;38224;50.950;4.100;2023-09-08T00:27:42;11.30;;;8.43;;
52268;SDS011;38224;50.950;4.100;2023-09-08T00:30:08;9.97;;;7.63;;
52268;SDS011;38224;50.950;4.100;2023-09-08T00:32:33;11.93;;;8.38;;
52268;SDS011;38224;50.950;4.100;2023-09-08T00:34:58;11.33;;;7.70;;
52268;SDS011;38224;50.950;4.100;2023-09-08T00:37:23;11.27;;;7.37;;
52268;SDS011;38224;50.950;4.100;2023-09-08T00:39:49;12.05;;;8.75;;
52268;SDS011;38224;50.950;4.100;2023-09-08T00:42:14;11.63;;;7.97;;
52268;SDS011;38224;50.950;4.100;2023-09-08T00:44:39;10.77;;;7.93;;
52268;SDS011;38224;50.950;4.100;2023-09-08T00:47:05;12.50;;;8.47;;
52268;SDS011;38224;50.950;4.100;2023-09-08T00:49:30;11.73;;;7.82;;
52268;SDS011;38224;50.950;4.100;2023-09-08T00:51:55;9.82;;;8.07;;
52268;SDS011;38224;50.950;4.100;2023-09-08T00:54:21;9.73;;;6.97;;
52268;SDS011;38224;50.950;4.100;2023-09-08T00:56:46;10.50;;;7.47;;
52268;SDS011;38224;50.950;4.100;2023-09-08T00:59:11;9.00;;;6.93;;
52268;SDS011;38224;50.950;4.100;2023-09-08T01:01:36;9.80;;;7.35;;
52268;SDS011;38224;50.950;4.100;2023-09-08T01:04:05;9.83;;;7.30;;
52268;SDS011;38224;50.950;4.100;2023-09-08T01:06:30;10.55;;;7.57;;
52268;SDS011;38224;50.950;4.100;2023-09-08T01:08:57;8.55;;;7.05;;
52268;SDS011;38224;50.950;4.100;2023-09-08T01:11:23;13.73;;;8.53;;
52268;SDS011;38224;50.950;4.100;2023-09-08T01:13:48;9.82;;;7.88;;
52268;SDS011;38224;50.950;4.100;2023-09-08T01:16:13;11.83;;;8.70;;
52268;SDS011;38224;50.950;4.100;2023-09-08T01:18:38;13.20;;;8.63;;
52268;SDS011;38224;50.950;4.100;2023-09-08T01:26:21;14.80;;;9.15;;
52268;SDS011;38224;50.950;4.100;2023-09-08T01:28:49;12.48;;;9.02;;
52268;SDS011;38224;50.950;4.100;2023-09-08T01:31:14;12.93;;;9.80;;
52268;SDS011;38224;50.950;4.100;2023-09-08T01:33:40;15.70;;;9.88;;
52268;SDS011;38224;50.950;4.100;2023-09-08T01:36:06;11.30;;;8.60;;
52268;SDS011;38224;50.950;4.100;2023-09-08T01:38:32;13.68;;;9.75;;
52268;SDS011;38224;50.950;4.100;2023-09-08T01:40:57;12.93;;;9.30;;
52268;SDS011;38224;50.950;4.100;2023-09-08T01:43:22;12.75;;;9.63;;
52268;SDS011;38224;50.950;4.100;2023-09-08T01:45:48;10.40;;;9.15;;
52268;SDS011;38224;50.950;4.100;2023-09-08T01:48:13;15.03;;;9.20;;
52268;SDS011;38224;50.950;4.100;2023-09-08T01:50:38;11.80;;;8.83;;
52268;SDS011;38224;50.950;4.100;2023-09-08T01:53:03;13.10;;;9.48;;
52268;SDS011;38224;50.950;4.100;2023-09-08T01:55:28;12.67;;;9.53;;
52268;SDS011;38224;50.950;4.100;2023-09-08T01:57:54;12.97;;;9.67;;
52268;SDS011;38224;50.950;4.100;2023-09-08T02:00:19;15.77;;;9.33;;
52268;SDS011;38224;50.950;4.100;2023-09-08T02:02:45;13.15;;;8.23;;
52268;SDS011;38224;50.950;4.100;2023-09-08T02:05:10;18.83;;;8.57;;
52268;SDS011;38224;50.950;4.100;2023-09-08T02:07:35;12.87;;;8.63;;
52268;SDS011;38224;50.950;4.100;2023-09-08T02:10:01;11.52;;;8.57;;
52268;SDS011;38224;50.950;4.100;2023-09-08T02:12:26;12.63;;;8.97;;
52268;SDS011;38224;50.950;4.100;2023-09-08T02:14:51;16.75;;;9.35;;
52268;SDS011;38224;50.950;4.100;2023-09-08T02:17:19;12.80;;;9.40;;
52268;SDS011;38224;50.950;4.100;2023-09-08T02:19:45;14.27;;;9.30;;
52268;SDS011;38224;50.950;4.100;2023-09-08T02:22:10;12.43;;;8.60;;
52268;SDS011;38224;50.950;4.100;2023-09-08T02:24:35;12.98;;;9.32;;
52268;SDS011;38224;50.950;4.100;2023-09-08T02:27:01;12.30;;;9.38;;
52268;SDS011;38224;50.950;4.100;2023-09-08T02:29:26;15.40;;;9.80;;
52268;SDS011;38224;50.950;4.100;2023-09-08T02:31:51;17.30;;;10.70;;
52268;SDS011;38224;50.950;4.100;2023-09-08T02:34:16;17.33;;;10.73;;
52268;SDS011;38224;50.950;4.100;2023-09-08T02:36:42;13.40;;;10.30;;
52268;SDS011;38224;50.950;4.100;2023-09-08T02:39:07;15.43;;;9.50;;
52268;SDS011;38224;50.950;4.100;2023-09-08T02:41:33;14.05;;;9.23;;
52268;SDS011;38224;50.950;4.100;2023-09-08T02:43:59;13.85;;;10.40;;
52268;SDS011;38224;50.950;4.100;2023-09-08T02:46:24;20.75;;;10.55;;
52268;SDS011;38224;50.950;4.100;2023-09-08T02:48:49;16.17;;;10.43;;
52268;SDS011;38224;50.950;4.100;2023-09-08T02:51:14;14.90;;;9.80;;
52268;SDS011;38224;50.950;4.100;2023-09-08T02:53:40;14.63;;;9.17;;
52268;SDS011;38224;50.950;4.100;2023-09-08T02:56:05;13.50;;;9.73;;
52268;SDS011;38224;50.950;4.100;2023-09-08T02:58:31;13.23;;;9.57;;
52268;SDS011;38224;50.950;4.100;2023-09-08T03:01:08;11.82;;;9.65;;
52268;SDS011;38224;50.950;4.100;2023-09-08T03:03:33;14.88;;;9.43;;
52268;SDS011;38224;50.950;4.100;2023-09-08T03:05:59;14.00;;;9.15;;
52268;SDS011;38224;50.950;4.100;2023-09-08T03:08:28;16.48;;;9.52;;
52268;SDS011;38224;50.950;4.100;2023-09-08T03:10:55;18.60;;;9.35;;
52268;SDS011;38224;50.950;4.100;2023-09-08T03:13:20;12.05;;;9.60;;
52268;SDS011;38224;50.950;4.100;2023-09-08T03:15:45;14.80;;;9.47;;
52268;SDS011;38224;50.950;4.100;2023-09-08T03:18:10;17.53;;;8.83;;
52268;SDS011;38224;50.950;4.100;2023-09-08T03:20:36;16.80;;;9.80;;
52268;SDS011;38224;50.950;4.100;2023-09-08T03:23:01;16.20;;;9.63;;
52268;SDS011;38224;50.950;4.100;2023-09-08T03:25:26;12.80;;;8.63;;
52268;SDS011;38224;50.950;4.100;2023-09-08T03:27:51;15.57;;;9.27;;
52268;SDS011;38224;50.950;4.100;2023-09-08T03:30:17;14.80;;;9.07;;
52268;SDS011;38224;50.950;4.100;2023-09-08T03:32:42;20.10;;;9.80;;
52268;SDS011;38224;50.950;4.100;2023-09-08T03:35:07;17.02;;;9.25;;
52268;SDS011;38224;50.950;4.100;2023-09-08T03:37:36;13.57;;;9.77;;
52268;SDS011;38224;50.950;4.100;2023-09-08T03:40:01;14.57;;;9.63;;
52268;SDS011;38224;50.950;4.100;2023-09-08T03:42:29;15.82;;;9.35;;
52268;SDS011;38224;50.950;4.100;2023-09-08T03:44:55;13.97;;;10.27;;
52268;SDS011;38224;50.950;4.100;2023-09-08T03:47:20;17.50;;;9.80;;
52268;SDS011;38224;50.950;4.100;2023-09-08T03:49:45;13.50;;;9.50;;
52268;SDS011;38224;50.950;4.100;2023-09-08T03:52:10;17.77;;;10.77;;
52268;SDS011;38224;50.950;4.100;2023-09-08T03:54:37;15.15;;;10.93;;
52268;SDS011;38224;50.950;4.100;2023-09-08T03:57:03;16.63;;;9.27;;
52268;SDS011;38224;50.950;4.100;2023-09-08T03:59:28;17.02;;;10.18;;
52268;SDS011;38224;50.950;4.100;2023-09-08T04:01:53;19.50;;;10.00;;
52268;SDS011;38224;50.950;4.100;2023-09-08T04:04:18;14.23;;;10.27;;
52268;SDS011;38224;50.950;4.100;2023-09-08T04:06:45;16.20;;;10.23;;
52268;SDS011;38224;50.950;4.100;2023-09-08T04:09:10;15.88;;;9.95;;
52268;SDS011;38224;50.950;4.100;2023-09-08T04:11:35;19.13;;;11.43;;
52268;SDS011;38224;50.950;4.100;2023-09-08T04:14:00;18.10;;;10.43;;
52268;SDS011;38224;50.950;4.100;2023-09-08T04:16:26;12.97;;;9.77;;
52268;SDS011;38224;50.950;4.100;2023-09-08T04:18:51;15.82;;;10.75;;
52268;SDS011;38224;50.950;4.100;2023-09-08T04:21:16;16.10;;;9.90;;
52268;SDS011;38224;50.950;4.100;2023-09-08T04:23:42;18.23;;;10.70;;
52268;SDS011;38224;50.950;4.100;2023-09-08T04:26:07;13.77;;;10.03;;
52268;SDS011;38224;50.950;4.100;2023-09-08T04:28:32;13.87;;;10.63;;
52268;SDS011;38224;50.950;4.100;2023-09-08T04:30:57;16.87;;;11.50;;
52268;SDS011;38224;50.950;4.100;2023-09-08T04:33:24;12.45;;;10.02;;
52268;SDS011;38224;50.950;4.100;2023-09-08T04:35:49;16.20;;;10.27;;
52268;SDS011;38224;50.950;4.100;2023-09-08T04:38:14;16.03;;;9.90;;
52268;SDS011;38224;50.950;4.100;2023-09-08T04:40:40;15.45;;;10.52;;
52268;SDS011;38224;50.950;4.100;2023-09-08T04:43:05;18.38;;;10.75;;
52268;SDS011;38224;50.950;4.100;2023-09-08T04:45:31;15.07;;;10.63;;
52268;SDS011;38224;50.950;4.100;2023-09-08T04:47:56;15.77;;;10.10;;
52268;SDS011;38224;50.950;4.100;2023-09-08T04:50:21;15.55;;;11.43;;
52268;SDS011;38224;50.950;4.100;2023-09-08T04:52:46;14.83;;;11.13;;
52268;SDS011;38224;50.950;4.100;2023-09-08T04:55:12;16.40;;;11.23;;
52268;SDS011;38224;50.950;4.100;2023-09-08T04:57:37;18.38;;;10.63;;
52268;SDS011;38224;50.950;4.100;2023-09-08T05:00:02;18.20;;;11.43;;
52268;SDS011;38224;50.950;4.100;2023-09-08T05:02:28;15.35;;;11.20;;
52268;SDS011;38224;50.950;4.100;2023-09-08T05:04:53;18.73;;;11.27;;
52268;SDS011;38224;50.950;4.100;2023-09-08T05:07:18;18.52;;;12.27;;
52268;SDS011;38224;50.950;4.100;2023-09-08T05:09:44;14.68;;;11.18;;
52268;SDS011;38224;50.950;4.100;2023-09-08T05:12:12;21.75;;;11.15;;
52268;SDS011;38224;50.950;4.100;2023-09-08T05:14:37;16.85;;;10.93;;
52268;SDS011;38224;50.950;4.100;2023-09-08T05:17:02;15.40;;;10.80;;
52268;SDS011;38224;50.950;4.100;2023-09-08T05:19:28;19.05;;;11.02;;
52268;SDS011;38224;50.950;4.100;2023-09-08T05:21:54;16.50;;;10.50;;
52268;SDS011;38224;50.950;4.100;2023-09-08T05:24:19;13.05;;;10.50;;
52268;SDS011;38224;50.950;4.100;2023-09-08T05:26:45;16.92;;;10.85;;
52268;SDS011;38224;50.950;4.100;2023-09-08T05:29:11;17.63;;;12.02;;
52268;SDS011;38224;50.950;4.100;2023-09-08T05:31:36;12.93;;;10.05;;
52268;SDS011;38224;50.950;4.100;2023-09-08T05:34:02;16.53;;;11.50;;
52268;SDS011;38224;50.950;4.100;2023-09-08T05:36:28;14.77;;;10.93;;
52268;SDS011;38224;50.950;4.100;2023-09-08T05:38:55;14.70;;;10.68;;
52268;SDS011;38224;50.950;4.100;2023-09-08T05:41:20;13.35;;;10.32;;
52268;SDS011;38224;50.950;4.100;2023-09-08T05:43:45;16.33;;;10.73;;
52268;SDS011;38224;50.950;4.100;2023-09-08T05:46:11;13.27;;;10.63;;
52268;SDS011;38224;50.950;4.100;2023-09-08T05:48:36;13.50;;;10.30;;
52268;SDS011;38224;50.950;4.100;2023-09-08T05:51:01;16.83;;;10.35;;
52268;SDS011;38224;50.950;4.100;2023-09-08T05:53:27;13.63;;;10.70;;
52268;SDS011;38224;50.950;4.100;2023-09-08T05:55:53;15.35;;;10.73;;
52268;SDS011;38224;50.950;4.100;2023-09-08T05:58:18;14.80;;;10.70;;
52268;SDS011;38224;50.950;4.100;2023-09-08T06:00:43;15.47;;;9.80;;
52268;SDS011;38224;50.950;4.100;2023-09-08T06:03:09;14.32;;;11.02;;
52268;SDS011;38224;50.950;4.100;2023-09-08T06:05:34;12.20;;;9.33;;
52268;SDS011;38224;50.950;4.100;2023-09-08T06:07:59;16.27;;;9.50;;
52268;SDS011;38224;50.950;4.100;2023-09-08T06:10:24;13.43;;;8.43;;
52268;SDS011;38224;50.950;4.100;2023-09-08T06:12:52;14.00;;;9.15;;
52268;SDS011;38224;50.950;4.100;2023-09-08T06:15:18;16.53;;;8.63;;
52268;SDS011;38224;50.950;4.100;2023-09-08T06:17:43;14.93;;;7.95;;
52268;SDS011;38224;50.950;4.100;2023-09-08T06:20:08;11.95;;;8.73;;
52268;SDS011;38224;50.950;4.100;2023-09-08T06:22:34;15.05;;;8.32;;
52268;SDS011;38224;50.950;4.100;2023-09-08T06:24:59;10.93;;;6.93;;
52268;SDS011;38224;50.950;4.100;2023-09-08T06:27:24;12.30;;;7.47;;
52268;SDS011;38224;50.950;4.100;2023-09-08T06:29:50;11.93;;;6.57;;
52268;SDS011;38224;50.950;4.100;2023-09-08T06:32:16;14.02;;;6.68;;
52268;SDS011;38224;50.950;4.100;2023-09-08T06:34:41;9.50;;;7.22;;
52268;SDS011;38224;50.950;4.100;2023-09-08T06:37:08;12.63;;;6.82;;
52268;SDS011;38224;50.950;4.100;2023-09-08T06:39:33;11.38;;;6.05;;
52268;SDS011;38224;50.950;4.100;2023-09-08T06:41:58;6.77;;;5.60;;
52268;SDS011;38224;50.950;4.100;2023-09-08T06:44:23;9.37;;;6.30;;
52268;SDS011;38224;50.950;4.100;2023-09-08T06:46:49;11.52;;;5.75;;
52268;SDS011;38224;50.950;4.100;2023-09-08T06:49:14;9.40;;;5.87;;
52268;SDS011;38224;50.950;4.100;2023-09-08T06:51:40;8.80;;;5.80;;
52268;SDS011;38224;50.950;4.100;2023-09-08T06:54:05;9.10;;;5.53;;
52268;SDS011;38224;50.950;4.100;2023-09-08T06:56:30;8.07;;;5.53;;
52268;SDS011;38224;50.950;4.100;2023-09-08T06:58:55;8.73;;;5.73;;
52268;SDS011;38224;50.950;4.100;2023-09-08T07:01:23;9.98;;;6.05;;
52268;SDS011;38224;50.950;4.100;2023-09-08T07:03:48;8.35;;;5.20;;
52268;SDS011;38224;50.950;4.100;2023-09-08T07:06:13;7.83;;;5.90;;
52268;SDS011;38224;50.950;4.100;2023-09-08T07:08:38;11.73;;;6.05;;
52268;SDS011;38224;50.950;4.100;2023-09-08T07:11:04;9.40;;;5.90;;
52268;SDS011;38224;50.950;4.100;2023-09-08T07:13:29;13.67;;;5.80;;
52268;SDS011;38224;50.950;4.100;2023-09-08T07:15:54;11.80;;;5.77;;
52268;SDS011;38224;50.950;4.100;2023-09-08T07:18:19;11.13;;;5.50;;
52268;SDS011;38224;50.950;4.100;2023-09-08T07:20:47;9.97;;;5.30;;
52268;SDS011;38224;50.950;4.100;2023-09-08T07:23:13;8.27;;;5.63;;
52268;SDS011;38224;50.950;4.100;2023-09-08T07:25:39;8.50;;;5.30;;
52268;SDS011;38224;50.950;4.100;2023-09-08T07:28:04;8.57;;;5.53;;
52268;SDS011;38224;50.950;4.100;2023-09-08T07:30:31;15.07;;;5.60;;
52268;SDS011;38224;50.950;4.100;2023-09-08T07:32:56;8.02;;;5.60;;
52268;SDS011;38224;50.950;4.100;2023-09-08T07:35:23;7.20;;;5.10;;
52268;SDS011;38224;50.950;4.100;2023-09-08T07:37:49;9.57;;;5.35;;
52268;SDS011;38224;50.950;4.100;2023-09-08T07:40:14;10.43;;;5.20;;
52268;SDS011;38224;50.950;4.100;2023-09-08T07:42:39;7.60;;;5.13;;
52268;SDS011;38224;50.950;4.100;2023-09-08T07:45:05;8.83;;;4.93;;
52268;SDS011;38224;50.950;4.100;2023-09-08T07:47:30;6.70;;;5.60;;
52268;SDS011;38224;50.950;4.100;2023-09-08T07:50:15;6.73;;;5.50;;
52268;SDS011;38224;50.950;4.100;2023-09-08T07:52:41;10.20;;;5.38;;
52268;SDS011;38224;50.950;4.100;2023-09-08T07:55:06;6.77;;;5.30;;
52268;SDS011;38224;50.950;4.100;2023-09-08T07:57:31;7.72;;;5.20;;
52268;SDS011;38224;50.950;4.100;2023-09-08T07:59:57;7.73;;;4.50;;
52268;SDS011;38224;50.950;4.100;2023-09-08T08:02:22;6.80;;;5.32;;
52268;SDS011;38224;50.950;4.100;2023-09-08T08:04:47;9.63;;;5.03;;
52268;SDS011;38224;50.950;4.100;2023-09-08T08:07:13;5.73;;;4.53;;
52268;SDS011;38224;50.950;4.100;2023-09-08T08:09:38;8.27;;;5.03;;
52268;SDS011;38224;50.950;4.100;2023-09-08T08:12:03;8.02;;;5.28;;
52268;SDS011;38224;50.950;4.100;2023-09-08T08:14:28;7.07;;;4.65;;
52268;SDS011;38224;50.950;4.100;2023-09-08T08:16:54;7.20;;;4.90;;
52268;SDS011;38224;50.950;4.100;2023-09-08T08:19:19;7.27;;;5.00;;
52268;SDS011;38224;50.950;4.100;2023-09-08T08:21:44;6.87;;;4.83;;
52268;SDS011;38224;50.950;4.100;2023-09-08T08:24:09;10.67;;;5.10;;
52268;SDS011;38224;50.950;4.100;2023-09-08T08:26:35;9.23;;;5.22;;
52268;SDS011;38224;50.950;4.100;2023-09-08T08:29:00;11.20;;;5.23;;
52268;SDS011;38224;50.950;4.100;2023-09-08T08:31:25;7.23;;;5.17;;
52268;SDS011;38224;50.950;4.100;2023-09-08T08:33:51;10.03;;;5.23;;
52268;SDS011;38224;50.950;4.100;2023-09-08T08:36:16;10.87;;;5.33;;
52268;SDS011;38224;50.950;4.100;2023-09-08T08:38:41;6.33;;;4.47;;
52268;SDS011;38224;50.950;4.100;2023-09-08T08:41:06;6.47;;;4.80;;
52268;SDS011;38224;50.950;4.100;2023-09-08T08:43:32;9.03;;;4.93;;
52268;SDS011;38224;50.950;4.100;2023-09-08T08:45:57;6.80;;;4.80;;
52268;SDS011;38224;50.950;4.100;2023-09-08T08:48:23;7.20;;;4.97;;
52268;SDS011;38224;50.950;4.100;2023-09-08T08:50:50;9.02;;;4.82;;
52268;SDS011;38224;50.950;4.100;2023-09-08T08:53:15;6.23;;;4.50;;
52268;SDS011;38224;50.950;4.100;2023-09-08T08:55:42;10.60;;;4.80;;
52268;SDS011;38224;50.950;4.100;2023-09-08T08:58:08;7.82;;;4.70;;
52268;SDS011;38224;50.950;4.100;2023-09-08T09:00:36;10.85;;;4.95;;
52268;SDS011;38224;50.950;4.100;2023-09-08T09:03:03;9.02;;;4.75;;
52268;SDS011;38224;50.950;4.100;2023-09-08T09:05:29;9.10;;;4.75;;
52268;SDS011;38224;50.950;4.100;2023-09-08T09:07:54;6.32;;;4.32;;
52268;SDS011;38224;50.950;4.100;2023-09-08T09:10:22;7.82;;;4.53;;
52268;SDS011;38224;50.950;4.100;2023-09-08T09:12:48;8.33;;;4.37;;
52268;SDS011;38224;50.950;4.100;2023-09-08T09:15:13;9.40;;;5.00;;
52268;SDS011;38224;50.950;4.100;2023-09-08T09:17:38;10.23;;;4.85;;
52268;SDS011;38224;50.950;4.100;2023-09-08T09:22:39;6.22;;;4.40;;
52268;SDS011;38224;50.950;4.100;2023-09-08T09:25:05;7.60;;;4.82;;
52268;SDS011;38224;50.950;4.100;2023-09-08T09:27:32;7.63;;;4.55;;
52268;SDS011;38224;50.950;4.100;2023-09-08T09:29:57;11.48;;;4.45;;
52268;SDS011;38224;50.950;4.100;2023-09-08T09:32:23;7.38;;;4.60;;
52268;SDS011;38224;50.950;4.100;2023-09-08T09:34:49;7.22;;;4.65;;
52268;SDS011;38224;50.950;4.100;2023-09-08T09:37:16;9.38;;;4.88;;
52268;SDS011;38224;50.950;4.100;2023-09-08T09:39:41;8.07;;;5.15;;
52268;SDS011;38224;50.950;4.100;2023-09-08T09:42:06;9.23;;;4.47;;
52268;SDS011;38224;50.950;4.100;2023-09-08T09:44:31;5.83;;;4.43;;
52268;SDS011;38224;50.950;4.100;2023-09-08T09:46:57;7.10;;;4.27;;
52268;SDS011;38224;50.950;4.100;2023-09-08T09:49:22;8.43;;;4.47;;
52268;SDS011;38224;50.950;4.100;2023-09-08T09:51:49;6.93;;;4.72;;
52268;SDS011;38224;50.950;4.100;2023-09-08T09:54:17;7.40;;;4.38;;
52268;SDS011;38224;50.950;4.100;2023-09-08T09:56:43;10.50;;;4.37;;
52268;SDS011;38224;50.950;4.100;2023-09-08T09:59:09;6.32;;;3.72;;
52268;SDS011;38224;50.950;4.100;2023-09-08T10:01:35;7.80;;;3.85;;
52268;SDS011;38224;50.950;4.100;2023-09-08T10:04:01;5.93;;;4.00;;
52268;SDS011;38224;50.950;4.100;2023-09-08T10:06:28;9.35;;;4.00;;
52268;SDS011;38224;50.950;4.100;2023-09-08T10:08:54;7.45;;;3.83;;
52268;SDS011;38224;50.950;4.100;2023-09-08T10:11:21;9.30;;;4.10;;
52268;SDS011;38224;50.950;4.100;2023-09-08T10:13:47;9.35;;;4.00;;
52268;SDS011;38224;50.950;4.100;2023-09-08T10:16:15;4.35;;;3.45;;
52268;SDS011;38224;50.950;4.100;2023-09-08T10:18:41;6.28;;;3.88;;
52268;SDS011;38224;50.950;4.100;2023-09-08T10:21:09;6.72;;;3.75;;
52268;SDS011;38224;50.950;4.100;2023-09-08T10:23:36;6.32;;;3.38;;
52268;SDS011;38224;50.950;4.100;2023-09-08T10:26:03;5.68;;;3.40;;
52268;SDS011;38224;50.950;4.100;2023-09-08T10:28:30;8.02;;;3.35;;
52268;SDS011;38224;50.950;4.100;2023-09-08T10:30:56;7.45;;;4.10;;
52268;SDS011;38224;50.950;4.100;2023-09-08T10:33:22;7.25;;;3.92;;
52268;SDS011;38224;50.950;4.100;2023-09-08T10:35:49;7.68;;;4.20;;
52268;SDS011;38224;50.950;4.100;2023-09-08T10:40:49;7.57;;;3.67;;
52268;SDS011;38224;50.950;4.100;2023-09-08T10:43:14;6.45;;;3.92;;
52268;SDS011;38224;50.950;4.100;2023-09-08T10:45:39;6.50;;;3.63;;
52268;SDS011;38224;50.950;4.100;2023-09-08T10:48:06;10.27;;;3.60;;
52268;SDS011;38224;50.950;4.100;2023-09-08T10:50:32;13.68;;;3.80;;
52268;SDS011;38224;50.950;4.100;2023-09-08T10:53:05;5.57;;;3.60;;
52268;SDS011;38224;50.950;4.100;2023-09-08T10:55:44;9.27;;;4.10;;
52268;SDS011;38224;50.950;4.100;2023-09-08T10:58:19;8.25;;;3.60;;
52268;SDS011;38224;50.950;4.100;2023-09-08T11:00:46;8.88;;;4.07;;
52268;SDS011;38224;50.950;4.100;2023-09-08T11:03:11;5.60;;;3.40;;
52268;SDS011;38224;50.950;4.100;2023-09-08T11:05:37;7.13;;;3.33;;
52268;SDS011;38224;50.950;4.100;2023-09-08T11:08:02;5.82;;;3.38;;
52268;SDS011;38224;50.950;4.100;2023-09-08T11:10:28;4.70;;;2.95;;
52268;SDS011;38224;50.950;4.100;2023-09-08T11:12:55;6.30;;;3.40;;
52268;SDS011;38224;50.950;4.100;2023-09-08T11:15:20;5.87;;;3.20;;
52268;SDS011;38224;50.950;4.100;2023-09-08T11:17:46;7.57;;;2.90;;
52268;SDS011;38224;50.950;4.100;2023-09-08T11:20:15;6.93;;;2.80;;
52268;SDS011;38224;50.950;4.100;2023-09-08T11:22:41;7.30;;;3.13;;
52268;SDS011;38224;50.950;4.100;2023-09-08T11:25:07;3.95;;;3.08;;
52268;SDS011;38224;50.950;4.100;2023-09-08T11:27:33;3.40;;;3.08;;
52268;SDS011;38224;50.950;4.100;2023-09-08T11:29:58;4.63;;;3.15;;
52268;SDS011;38224;50.950;4.100;2023-09-08T11:32:24;3.88;;;2.78;;
52268;SDS011;38224;50.950;4.100;2023-09-08T11:34:49;5.57;;;3.30;;
52268;SDS011;38224;50.950;4.100;2023-09-08T11:37:17;3.67;;;3.08;;
52268;SDS011;38224;50.950;4.100;2023-09-08T11:39:43;7.18;;;3.55;;
52268;SDS011;38224;50.950;4.100;2023-09-08T11:42:10;9.68;;;3.30;;
52268;SDS011;38224;50.950;4.100;2023-09-08T11:44:35;7.80;;;3.50;;
52268;SDS011;38224;50.950;4.100;2023-09-08T11:47:02;4.30;;;2.88;;
52268;SDS011;38224;50.950;4.100;2023-09-08T11:52:00;4.78;;;2.75;;
52268;SDS011;38224;50.950;4.100;2023-09-08T11:54:25;8.13;;;3.13;;
52268;SDS011;38224;50.950;4.100;2023-09-08T11:56:51;6.20;;;3.20;;
52268;SDS011;38224;50.950;4.100;2023-09-08T11:59:17;7.03;;;2.83;;
52268;SDS011;38224;50.950;4.100;2023-09-08T12:01:42;8.23;;;2.92;;
52268;SDS011;38224;50.950;4.100;2023-09-08T12:04:13;3.83;;;2.95;;
52268;SDS011;38224;50.950;4.100;2023-09-08T12:06:41;3.53;;;2.70;;
52268;SDS011;38224;50.950;4.100;2023-09-08T12:09:07;4.70;;;3.03;;
52268;SDS011;38224;50.950;4.100;2023-09-08T12:11:33;7.95;;;3.58;;
52268;SDS011;38224;50.950;4.100;2023-09-08T12:14:21;4.28;;;2.67;;
52268;SDS011;38224;50.950;4.100;2023-09-08T12:16:46;5.80;;;3.25;;
52268;SDS011;38224;50.950;4.100;2023-09-08T12:19:30;6.20;;;3.03;;
52268;SDS011;38224;50.950;4.100;2023-09-08T12:21:56;4.80;;;3.00;;
52268;SDS011;38224;50.950;4.100;2023-09-08T12:27:06;5.50;;;3.05;;
52268;SDS011;38224;50.950;4.100;2023-09-08T12:29:31;7.55;;;3.17;;
52268;SDS011;38224;50.950;4.100;2023-09-08T12:31:56;5.47;;;3.10;;
52268;SDS011;38224;50.950;4.100;2023-09-08T12:34:22;8.60;;;3.50;;
52268;SDS011;38224;50.950;4.100;2023-09-08T12:36:47;5.33;;;3.30;;
52268;SDS011;38224;50.950;4.100;2023-09-08T12:39:12;8.00;;;2.90;;
52268;SDS011;38224;50.950;4.100;2023-09-08T12:41:38;7.70;;;3.50;;
52268;SDS011;38224;50.950;4.100;2023-09-08T12:44:03;8.30;;;3.38;;
52268;SDS011;38224;50.950;4.100;2023-09-08T12:46:28;8.00;;;3.40;;
52268;SDS011;38224;50.950;4.100;2023-09-08T12:48:55;7.90;;;3.38;;
52268;SDS011;38224;50.950;4.100;2023-09-08T12:51:20;8.00;;;3.10;;
52268;SDS011;38224;50.950;4.100;2023-09-08T12:53:45;9.07;;;3.45;;
52268;SDS011;38224;50.950;4.100;2023-09-08T12:56:11;7.10;;;3.53;;
52268;SDS011;38224;50.950;4.100;2023-09-08T12:58:36;6.53;;;3.10;;
52268;SDS011;38224;50.950;4.100;2023-09-08T13:01:01;9.97;;;3.60;;
52268;SDS011;38224;50.950;4.100;2023-09-08T13:03:26;7.77;;;3.10;;
52268;SDS011;38224;50.950;4.100;2023-09-08T13:05:53;13.10;;;4.28;;
52268;SDS011;38224;50.950;4.100;2023-09-08T13:08:19;10.40;;;3.83;;
52268;SDS011;38224;50.950;4.100;2023-09-08T13:10:44;10.37;;;3.13;;
52268;SDS011;38224;50.950;4.100;2023-09-08T13:13:09;11.17;;;3.67;;
52268;SDS011;38224;50.950;4.100;2023-09-08T13:15:34;13.17;;;3.87;;
52268;SDS011;38224;50.950;4.100;2023-09-08T13:18:00;8.63;;;3.38;;
52268;SDS011;38224;50.950;4.100;2023-09-08T13:20:25;8.83;;;3.77;;
52268;SDS011;38224;50.950;4.100;2023-09-08T13:22:50;8.73;;;3.13;;
52268;SDS011;38224;50.950;4.100;2023-09-08T13:25:15;11.33;;;3.60;;
52268;SDS011;38224;50.950;4.100;2023-09-08T13:27:41;10.77;;;3.90;;
52268;SDS011;38224;50.950;4.100;2023-09-08T13:30:10;12.85;;;4.68;;
52268;SDS011;38224;50.950;4.100;2023-09-08T13:32:35;11.32;;;3.50;;
52268;SDS011;38224;50.950;4.100;2023-09-08T13:35:01;10.30;;;3.55;;
52268;SDS011;38224;50.950;4.100;2023-09-08T13:37:26;13.40;;;4.03;;
52268;SDS011;38224;50.950;4.100;2023-09-08T13:39:51;7.55;;;3.50;;
52268;SDS011;38224;50.950;4.100;2023-09-08T13:42:17;9.23;;;3.77;;
52268;SDS011;38224;50.950;4.100;2023-09-08T13:44:42;13.47;;;3.50;;
52268;SDS011;38224;50.950;4.100;2023-09-08T13:47:07;10.13;;;3.70;;
52268;SDS011;38224;50.950;4.100;2023-09-08T13:49:33;9.73;;;3.60;;
52268;SDS011;38224;50.950;4.100;2023-09-08T13:51:58;10.80;;;3.97;;
52268;SDS011;38224;50.950;4.100;2023-09-08T13:54:23;11.27;;;3.70;;
52268;SDS011;38224;50.950;4.100;2023-09-08T13:56:57;12.83;;;3.90;;
52268;SDS011;38224;50.950;4.100;2023-09-08T13:59:22;22.38;;;4.55;;
52268;SDS011;38224;50.950;4.100;2023-09-08T14:01:48;13.60;;;4.30;;
52268;SDS011;38224;50.950;4.100;2023-09-08T14:04:13;13.40;;;4.20;;
52268;SDS011;38224;50.950;4.100;2023-09-08T14:06:38;13.17;;;4.03;;
52268;SDS011;38224;50.950;4.100;2023-09-08T14:09:04;11.52;;;4.18;;
52268;SDS011;38224;50.950;4.100;2023-09-08T14:11:29;14.27;;;4.15;;
52268;SDS011;38224;50.950;4.100;2023-09-08T14:13:54;16.85;;;4.18;;
52268;SDS011;38224;50.950;4.100;2023-09-08T14:16:20;12.60;;;4.25;;
52268;SDS011;38224;50.950;4.100;2023-09-08T14:18:45;15.47;;;5.20;;
52268;SDS011;38224;50.950;4.100;2023-09-08T14:21:10;13.07;;;3.85;;
52268;SDS011;38224;50.950;4.100;2023-09-08T14:23:36;14.17;;;5.10;;
52268;SDS011;38224;50.950;4.100;2023-09-08T14:26:03;17.25;;;4.93;;
52268;SDS011;38224;50.950;4.100;2023-09-08T14:28:28;13.30;;;4.53;;
52268;SDS011;38224;50.950;4.100;2023-09-08T14:30:53;18.25;;;5.78;;
52268;SDS011;38224;50.950;4.100;2023-09-08T14:33:19;11.18;;;4.43;;
52268;SDS011;38224;50.950;4.100;2023-09-08T14:35:44;12.90;;;4.90;;
52268;SDS011;38224;50.950;4.100;2023-09-08T14:38:12;16.58;;;4.85;;
52268;SDS011;38224;50.950;4.100;2023-09-08T14:40:37;11.52;;;4.72;;
52268;SDS011;38224;50.950;4.100;2023-09-08T14:43:03;10.10;;;4.57;;
52268;SDS011;38224;50.950;4.100;2023-09-08T14:45:28;12.75;;;4.53;;